createdAt,value
2018-03-14T08:38:49.047Z,2.25
2018-03-14T08:39:38.120Z,4.37
2018-03-14T08:40:27.172Z,5.45
2018-03-14T08:41:16.233Z,5.97
2018-03-14T08:42:05.287Z,8.25
2018-03-14T08:42:54.330Z,6.10
2018-03-14T08:43:43.371Z,3.40
2018-03-14T08:44:32.455Z,8.00
2018-03-14T08:45:21.541Z,5.85
2018-03-14T08:46:10.660Z,5.00
2018-03-14T08:46:59.721Z,9.83
2018-03-14T08:47:48.758Z,3.95
2018-03-14T08:48:38.119Z,2.22
2018-03-14T08:49:27.197Z,3.92
2018-03-14T08:50:16.335Z,5.00
2018-03-14T08:51:05.404Z,5.78
2018-03-14T08:51:54.442Z,2.72
2018-03-14T08:52:43.476Z,1.95
2018-03-14T08:53:32.529Z,2.70
2018-03-14T08:54:21.595Z,1.60
2018-03-14T08:55:10.698Z,2.53
2018-03-14T08:55:59.818Z,3.80
2018-03-14T08:56:48.854Z,5.20
2018-03-14T08:57:37.892Z,6.62
2018-03-14T08:58:27.222Z,20.58
2018-03-14T08:59:16.262Z,6.85
2018-03-14T09:00:05.317Z,7.65
2018-03-14T09:00:54.366Z,6.12
2018-03-14T09:01:43.406Z,18.00
2018-03-14T09:02:32.451Z,6.20
2018-03-14T09:03:21.496Z,12.57
2018-03-14T09:04:10.602Z,18.90
2018-03-14T09:04:59.655Z,5.35
2018-03-14T09:05:48.697Z,5.80
2018-03-14T09:06:37.748Z,7.53
2018-03-14T09:07:26.845Z,15.52
2018-03-14T09:08:15.893Z,11.88
2018-03-14T09:09:05.048Z,7.12
2018-03-14T09:09:54.109Z,4.40
2018-03-14T09:10:43.155Z,4.40
2018-03-14T09:11:32.204Z,2.83
2018-03-14T09:12:21.239Z,1.77
2018-03-14T09:13:10.269Z,2.47
2018-03-14T09:13:59.414Z,2.85
2018-03-14T09:14:48.456Z,4.28
2018-03-14T09:15:37.636Z,3.40
2018-03-14T09:16:26.674Z,3.12
2018-03-14T09:17:15.709Z,2.60
2018-03-14T09:18:05.081Z,3.30
2018-03-14T09:18:54.148Z,16.45
2018-03-14T09:19:43.188Z,4.70
2018-03-14T09:20:32.224Z,7.40
2018-03-14T09:21:21.271Z,6.32
2018-03-14T09:22:10.491Z,2.55
2018-03-14T09:22:59.532Z,2.50
2018-03-14T09:23:48.631Z,2.60
2018-03-14T09:24:37.685Z,2.55
2018-03-14T09:25:26.719Z,6.95
2018-03-14T09:26:15.775Z,9.85
2018-03-14T09:27:04.811Z,3.33
2018-03-14T09:27:53.881Z,2.37
2018-03-14T09:28:42.901Z,3.72
2018-03-14T09:29:31.923Z,3.55
2018-03-14T09:30:20.957Z,8.77
2018-03-14T09:31:10.160Z,4.00
2018-03-14T09:31:59.190Z,3.72
2018-03-14T09:32:48.223Z,2.40
2018-03-14T09:33:37.329Z,11.07
2018-03-14T09:34:26.427Z,5.90
2018-03-14T09:35:15.483Z,7.60
2018-03-14T09:36:04.531Z,5.40
2018-03-14T09:36:53.584Z,3.80
2018-03-14T09:37:42.627Z,4.43
2018-03-14T09:38:31.718Z,4.55
2018-03-14T09:39:20.778Z,2.60
2018-03-14T09:40:09.824Z,4.60
2018-03-14T09:40:58.963Z,6.47
2018-03-14T09:41:48.007Z,5.50
2018-03-14T09:42:37.041Z,3.97
2018-03-14T09:43:26.079Z,3.70
2018-03-14T09:44:15.116Z,3.37
2018-03-14T09:45:04.189Z,2.58
2018-03-14T09:45:53.227Z,3.60
2018-03-14T09:46:42.320Z,3.40
2018-03-14T09:47:31.424Z,2.72
2018-03-14T09:48:20.460Z,4.97
2018-03-14T09:49:09.495Z,4.22
2018-03-14T09:49:58.530Z,5.80
2018-03-14T09:50:47.571Z,4.53
2018-03-14T09:51:36.608Z,3.50
2018-03-14T09:52:25.657Z,3.10
2018-03-14T09:53:14.728Z,3.58
2018-03-14T09:54:03.772Z,5.53
2018-03-14T09:54:52.806Z,4.60
2018-03-14T09:55:41.841Z,6.70
2018-03-14T09:56:30.891Z,5.57
2018-03-14T09:57:19.950Z,4.40
2018-03-14T09:58:08.988Z,5.72
2018-03-14T09:58:58.128Z,5.95
2018-03-14T09:59:47.164Z,4.28
2018-03-14T10:00:36.200Z,4.78
2018-03-14T10:01:25.246Z,5.07
2018-03-14T10:02:14.373Z,3.87
2018-03-14T10:03:03.439Z,5.30
2018-03-14T10:03:52.494Z,4.00
2018-03-14T10:04:41.553Z,4.43
2018-03-14T10:05:30.584Z,5.22
2018-03-14T10:06:19.626Z,4.50
2018-03-14T10:07:08.664Z,3.83
2018-03-14T10:07:57.853Z,6.57
2018-03-14T10:08:46.890Z,5.57
2018-03-14T10:09:35.989Z,3.70
2018-03-14T10:10:25.027Z,4.12
2018-03-14T10:11:14.079Z,3.87
2018-03-14T10:12:03.130Z,3.47
2018-03-14T10:12:52.192Z,2.22
2018-03-14T10:13:41.228Z,5.70
2018-03-14T10:14:30.267Z,5.53
2018-03-14T10:15:19.413Z,2.28
2018-03-14T10:16:08.493Z,4.43
2018-03-14T10:16:57.538Z,3.00
2018-03-14T10:17:46.577Z,1.90
2018-03-14T10:18:35.630Z,2.30
2018-03-14T10:19:24.775Z,1.95
2018-03-14T10:20:13.821Z,2.75
2018-03-14T10:21:02.875Z,2.53
2018-03-14T10:21:51.928Z,5.28
2018-03-14T10:22:41.006Z,8.63
2018-03-14T10:23:30.062Z,10.40
2018-03-14T10:24:19.106Z,3.70
2018-03-14T10:25:08.177Z,3.55
2018-03-14T10:25:57.246Z,4.20
2018-03-14T10:26:46.294Z,3.20
2018-03-14T10:27:35.343Z,3.70
2018-03-14T10:28:24.378Z,4.28
2018-03-14T10:29:13.759Z,3.53
2018-03-14T10:30:02.802Z,3.65
2018-03-14T10:30:51.870Z,2.55
2018-03-14T10:31:40.905Z,3.90
2018-03-14T10:32:29.950Z,4.25
2018-03-14T10:33:18.996Z,4.97
2018-03-14T10:34:08.115Z,5.62
2018-03-14T10:34:57.153Z,2.20
2018-03-14T10:35:46.182Z,4.72
2018-03-14T10:36:35.327Z,3.00
2018-03-14T10:37:24.364Z,3.95
2018-03-14T10:38:13.420Z,3.58
2018-03-14T10:39:02.481Z,3.70
2018-03-14T10:39:51.541Z,3.25
2018-03-14T10:40:40.584Z,3.37
2018-03-14T10:41:29.609Z,2.40
2018-03-14T10:42:18.896Z,2.97
2018-03-14T10:43:07.932Z,3.65
2018-03-14T10:43:56.981Z,14.68
2018-03-14T10:44:46.041Z,7.35
2018-03-14T10:45:35.077Z,5.12
2018-03-14T10:46:24.112Z,3.60
2018-03-14T10:47:13.156Z,2.58
2018-03-14T10:48:02.230Z,2.87
2018-03-14T10:48:51.277Z,3.40
2018-03-14T10:49:40.303Z,2.30
2018-03-14T10:50:29.378Z,2.75
2018-03-14T10:51:18.414Z,3.33
2018-03-14T10:52:07.447Z,1.98
2018-03-14T10:52:56.488Z,1.67
2018-03-14T10:53:45.640Z,2.12
2018-03-14T10:54:34.678Z,2.42
2018-03-14T10:55:23.725Z,2.10
2018-03-14T10:56:12.773Z,3.10
2018-03-14T10:57:01.810Z,2.15
2018-03-14T10:57:50.989Z,7.10
2018-03-14T10:58:40.033Z,3.50
2018-03-14T10:59:29.076Z,6.12
2018-03-14T11:00:23.517Z,3.45
2018-03-14T11:01:12.593Z,2.65
2018-03-14T11:02:07.004Z,3.35
2018-03-14T11:03:01.474Z,4.85
2018-03-14T11:03:50.528Z,10.82
2018-03-14T11:04:39.586Z,4.47
2018-03-14T11:05:28.634Z,5.32
2018-03-14T11:06:17.685Z,4.70
2018-03-14T11:07:06.725Z,4.43
2018-03-14T11:07:58.360Z,5.03
2018-03-14T11:08:47.412Z,10.13
2018-03-14T11:09:36.574Z,6.47
2018-03-14T11:10:25.776Z,7.22
2018-03-14T11:11:14.817Z,6.00
2018-03-14T11:12:03.889Z,7.62
2018-03-14T11:12:53.199Z,14.23
2018-03-14T11:13:42.262Z,19.48
2018-03-14T11:14:31.322Z,11.35
2018-03-14T11:15:20.380Z,14.20
2018-03-14T11:16:09.480Z,7.85
2018-03-14T11:16:58.515Z,10.88
2018-03-14T11:17:47.572Z,11.38
2018-03-14T11:18:36.619Z,10.90
2018-03-14T11:19:25.678Z,5.82
2018-03-14T11:20:14.822Z,7.85
2018-03-14T11:21:03.882Z,8.90
2018-03-14T11:21:52.934Z,12.02
2018-03-14T11:22:41.984Z,14.90
2018-03-14T11:23:31.036Z,2.85
2018-03-14T11:24:20.070Z,6.68
2018-03-14T11:25:09.171Z,6.72
2018-03-14T11:25:58.329Z,6.12
2018-03-14T11:26:47.366Z,7.93
2018-03-14T11:27:36.428Z,11.27
2018-03-14T11:28:25.474Z,7.65
2018-03-14T11:29:14.521Z,7.97
2018-03-14T11:30:03.819Z,6.80
2018-03-14T11:30:52.863Z,8.68
2018-03-14T11:31:41.911Z,8.65
2018-03-14T11:32:31.166Z,7.65
2018-03-14T11:33:20.202Z,4.37
2018-03-14T11:34:09.247Z,4.85
2018-03-14T11:34:58.301Z,7.07
2018-03-14T11:35:47.525Z,7.37
2018-03-14T11:36:36.568Z,5.62
2018-03-14T11:37:25.614Z,5.25
2018-03-14T11:38:14.673Z,6.22
2018-03-14T11:39:03.770Z,5.35
2018-03-14T11:39:52.816Z,5.28
2018-03-14T11:40:41.859Z,4.53
2018-03-14T11:41:30.977Z,3.80
2018-03-14T11:42:20.068Z,3.95
2018-03-14T11:43:09.108Z,3.80
2018-03-14T11:43:58.180Z,4.95
2018-03-14T11:44:47.220Z,6.37
2018-03-14T11:45:36.269Z,6.70
2018-03-14T11:46:25.325Z,6.72
2018-03-14T11:47:14.838Z,7.72
2018-03-14T11:48:03.921Z,7.40
2018-03-14T11:48:52.982Z,7.15
2018-03-14T11:49:42.062Z,4.78
2018-03-14T11:50:31.098Z,4.95
2018-03-14T11:51:20.145Z,5.68
2018-03-14T11:52:09.209Z,7.53
2018-03-14T11:52:58.256Z,7.22
2018-03-14T11:53:47.315Z,6.65
2018-03-14T11:54:36.362Z,6.12
2018-03-14T11:55:25.453Z,6.95
2018-03-14T11:56:14.489Z,3.12
2018-03-14T11:57:03.535Z,5.12
2018-03-14T11:57:52.600Z,4.70
2018-03-14T11:58:41.636Z,3.92
2018-03-14T11:59:30.725Z,7.82
2018-03-14T12:00:19.797Z,6.43
2018-03-14T12:01:08.846Z,7.70
2018-03-14T12:01:57.886Z,6.10
2018-03-14T12:02:47.024Z,6.15
2018-03-14T12:03:36.095Z,5.57
2018-03-14T12:04:25.140Z,5.22
2018-03-14T12:05:14.187Z,4.25
2018-03-14T12:06:03.240Z,5.25
2018-03-14T12:06:52.287Z,5.22
2018-03-14T12:07:41.331Z,4.82
2018-03-14T12:08:30.663Z,9.65
2018-03-14T12:09:19.724Z,8.00
2018-03-14T12:10:08.791Z,9.07
2018-03-14T12:10:57.989Z,7.20
2018-03-14T12:11:47.035Z,8.27
2018-03-14T12:12:36.067Z,5.68
2018-03-14T12:13:25.121Z,12.27
2018-03-14T12:14:14.192Z,5.22
2018-03-14T12:15:03.231Z,10.40
2018-03-14T12:15:52.274Z,9.38
2018-03-14T12:16:41.356Z,13.07
2018-03-14T12:17:30.403Z,7.60
2018-03-14T12:18:19.466Z,8.95
2018-03-14T12:19:08.521Z,6.07
2018-03-14T12:19:57.565Z,6.60
2018-03-14T12:20:46.604Z,7.78
2018-03-14T12:21:35.652Z,10.25
2018-03-14T12:22:30.334Z,11.55
2018-03-14T12:23:19.399Z,7.25
2018-03-14T12:24:08.488Z,7.40
2018-03-14T12:24:57.535Z,8.98
2018-03-14T12:25:46.580Z,9.30
2018-03-14T12:26:35.738Z,10.30
2018-03-14T12:27:24.828Z,8.57
2018-03-14T12:28:13.876Z,6.90
2018-03-14T12:29:02.932Z,8.48
2018-03-14T12:29:51.985Z,3.55
2018-03-14T12:30:41.025Z,2.70
2018-03-14T12:31:30.075Z,2.15
2018-03-14T12:32:19.175Z,4.15
2018-03-14T12:33:08.237Z,6.22
2018-03-14T12:33:57.297Z,4.35
2018-03-14T12:34:46.360Z,4.62
2018-03-14T12:35:35.409Z,6.45
2018-03-14T12:36:24.457Z,5.25
2018-03-14T12:37:13.498Z,5.47
2018-03-14T12:38:02.660Z,4.10
2018-03-14T12:38:51.703Z,2.30
2018-03-14T12:39:40.736Z,3.12
2018-03-14T12:40:29.849Z,6.05
2018-03-14T12:41:18.889Z,6.45
2018-03-14T12:42:07.990Z,5.47
2018-03-14T12:42:57.053Z,2.42
2018-03-14T12:43:46.128Z,4.70
2018-03-14T12:44:35.161Z,4.70
2018-03-14T12:45:24.203Z,6.37
2018-03-14T12:46:13.289Z,5.93
2018-03-14T12:47:02.328Z,7.62
2018-03-14T12:47:51.438Z,5.53
2018-03-14T12:48:40.471Z,5.03
2018-03-14T12:49:29.508Z,5.95
2018-03-14T12:50:18.554Z,5.60
2018-03-14T12:51:07.595Z,8.57
2018-03-14T12:51:56.636Z,6.53
2018-03-14T12:52:45.672Z,7.25
2018-03-14T12:53:34.821Z,8.73
2018-03-14T12:54:23.865Z,5.80
2018-03-14T12:55:12.910Z,5.10
2018-03-14T12:56:01.951Z,6.90
2018-03-14T12:56:50.988Z,5.68
2018-03-14T12:57:40.031Z,4.95
2018-03-14T12:58:29.073Z,4.43
2018-03-14T12:59:18.220Z,9.18
2018-03-14T13:00:07.308Z,10.23
2018-03-14T13:00:56.348Z,8.85
2018-03-14T13:01:45.383Z,5.28
2018-03-14T13:02:34.427Z,8.77
2018-03-14T13:03:23.548Z,4.53
2018-03-14T13:04:12.608Z,8.20
2018-03-14T13:05:01.643Z,5.43
2018-03-14T13:05:50.682Z,10.88
2018-03-14T13:06:39.763Z,11.02
2018-03-14T13:07:28.808Z,5.35
2018-03-14T13:08:17.854Z,5.93
2018-03-14T13:09:06.983Z,7.93
2018-03-14T13:09:56.264Z,5.37
2018-03-14T13:10:45.291Z,3.53
2018-03-14T13:11:34.348Z,5.30
2018-03-14T13:12:27.028Z,5.30
2018-03-14T13:13:16.073Z,8.10
2018-03-14T13:14:05.117Z,11.48
2018-03-14T13:14:54.288Z,6.30
2018-03-14T13:15:43.328Z,5.45
2018-03-14T13:16:32.366Z,4.12
2018-03-14T13:17:21.403Z,5.55
2018-03-14T13:18:10.486Z,5.07
2018-03-14T13:18:59.502Z,7.03
2018-03-14T13:19:48.540Z,7.57
2018-03-14T13:20:37.629Z,7.47
2018-03-14T13:21:26.690Z,9.05
2018-03-14T13:22:15.762Z,6.20
2018-03-14T13:23:04.805Z,5.25
2018-03-14T13:23:53.852Z,6.43
2018-03-14T13:24:42.898Z,5.12
2018-03-14T13:25:31.963Z,6.25
2018-03-14T13:26:21.086Z,5.70
2018-03-14T13:27:10.139Z,9.02
2018-03-14T13:27:59.175Z,5.10
2018-03-14T13:28:48.209Z,6.47
2018-03-14T13:29:37.261Z,7.90
2018-03-14T13:30:26.310Z,12.48
2018-03-14T13:31:15.360Z,7.53
2018-03-14T13:32:04.534Z,8.25
2018-03-14T13:32:53.627Z,8.27
2018-03-14T13:33:42.638Z,15.25
2018-03-14T13:34:31.688Z,14.82
2018-03-14T13:35:20.750Z,19.62
2018-03-14T13:36:09.802Z,22.62
2018-03-14T13:36:58.931Z,19.15
2018-03-14T13:37:47.984Z,23.38
2018-03-14T13:38:37.022Z,21.83
2018-03-14T13:39:26.083Z,16.90
2018-03-14T13:40:15.142Z,15.23
2018-03-14T13:41:04.198Z,21.33
2018-03-14T13:41:53.260Z,19.60
2018-03-14T13:42:42.370Z,27.98
2018-03-14T13:43:31.422Z,25.48
2018-03-14T13:44:20.541Z,23.65
2018-03-14T13:45:09.592Z,26.62
2018-03-14T13:45:58.651Z,22.25
2018-03-14T13:46:47.696Z,18.85
2018-03-14T13:47:36.860Z,18.20
2018-03-14T13:48:25.929Z,18.48
2018-03-14T13:49:14.988Z,16.27
2018-03-14T13:50:04.068Z,23.35
2018-03-14T13:50:53.129Z,22.25
2018-03-14T13:51:42.215Z,31.02
2018-03-14T13:52:31.263Z,20.80
2018-03-14T13:53:20.400Z,18.23
2018-03-14T13:54:09.480Z,15.65
2018-03-14T13:54:58.534Z,13.80
2018-03-14T13:55:47.590Z,10.30
2018-03-14T13:56:36.776Z,15.88
2018-03-14T13:57:25.828Z,12.90
2018-03-14T13:58:14.874Z,16.92
2018-03-14T13:59:03.934Z,11.07
2018-03-14T13:59:52.984Z,15.35
2018-03-14T14:00:42.056Z,18.55
2018-03-14T14:01:31.112Z,16.77
2018-03-14T14:02:20.211Z,12.68
2018-03-14T14:03:09.288Z,10.48
2018-03-14T14:03:58.343Z,9.18
2018-03-14T14:04:47.393Z,10.38
2018-03-14T14:05:36.464Z,14.30
2018-03-14T14:06:25.533Z,9.07
2018-03-14T14:07:14.596Z,10.98
2018-03-14T14:08:03.704Z,8.18
2018-03-14T14:08:52.752Z,12.55
2018-03-14T14:09:41.811Z,22.65
2018-03-14T14:10:30.883Z,25.60
2018-03-14T14:11:19.935Z,28.38
2018-03-14T14:12:09.011Z,12.35
2018-03-14T14:12:58.066Z,13.65
2018-03-14T14:13:47.640Z,18.87
2018-03-14T14:14:36.726Z,18.20
2018-03-14T14:15:25.787Z,16.77
2018-03-14T14:16:14.857Z,17.80
2018-03-14T14:17:03.924Z,17.12
2018-03-14T14:17:52.968Z,9.00
2018-03-14T14:18:42.023Z,12.32
2018-03-14T14:19:31.113Z,13.55
2018-03-14T14:20:20.812Z,11.05
2018-03-14T14:21:09.864Z,9.93
2018-03-14T14:21:58.949Z,10.45
2018-03-14T14:22:48.005Z,12.45
2018-03-14T14:23:37.071Z,8.20
2018-03-14T14:24:26.138Z,8.90
2018-03-14T14:25:15.229Z,9.10
2018-03-14T14:26:04.331Z,8.48
2018-03-14T14:26:53.405Z,10.90
2018-03-14T14:27:42.456Z,10.85
2018-03-14T14:28:31.511Z,10.57
2018-03-14T14:29:20.570Z,10.38
2018-03-14T14:30:09.626Z,9.88
2018-03-14T14:30:58.804Z,12.40
2018-03-14T14:31:47.881Z,10.20
2018-03-14T14:32:36.955Z,14.35
2018-03-14T14:33:26.041Z,12.50
2018-03-14T14:34:15.087Z,12.07
2018-03-14T14:35:04.173Z,7.35
2018-03-14T14:35:53.233Z,5.95
2018-03-14T14:36:42.396Z,7.70
2018-03-14T14:37:31.439Z,13.57
2018-03-14T14:38:20.524Z,11.57
2018-03-14T14:39:09.632Z,13.55
2018-03-14T14:39:58.687Z,9.75
2018-03-14T14:40:47.749Z,9.98
2018-03-14T14:41:36.883Z,9.35
2018-03-14T14:42:26.009Z,9.07
2018-03-14T14:43:15.058Z,8.45
2018-03-14T14:44:04.330Z,6.22
2018-03-14T14:44:53.372Z,8.13
2018-03-14T14:45:42.429Z,6.65
2018-03-14T14:46:31.496Z,6.57
2018-03-14T14:47:20.552Z,6.72
2018-03-14T14:48:09.595Z,7.40
2018-03-14T14:48:58.653Z,11.82
2018-03-14T14:49:47.756Z,9.57
2018-03-14T14:50:36.971Z,7.80
2018-03-14T14:51:26.024Z,8.00
2018-03-14T14:52:15.121Z,8.77
2018-03-14T14:53:04.217Z,11.25
2018-03-14T14:53:53.265Z,9.95
2018-03-14T14:54:42.321Z,9.07
2018-03-14T14:55:31.476Z,8.50
2018-03-14T14:56:20.521Z,8.73
2018-03-14T14:57:10.241Z,8.32
2018-03-14T14:57:59.296Z,8.10
2018-03-14T14:58:48.339Z,12.95
2018-03-14T14:59:37.398Z,15.05
2018-03-14T15:00:26.479Z,33.92
2018-03-14T15:01:15.544Z,18.85
2018-03-14T15:02:04.627Z,28.58
2018-03-14T15:02:53.716Z,165.43
2018-03-14T15:03:42.784Z,23.38
2018-03-14T15:04:31.890Z,42.28
2018-03-14T15:05:20.976Z,14.52
2018-03-14T15:06:10.089Z,59.33
2018-03-14T15:06:59.146Z,66.85
2018-03-14T15:07:48.193Z,24.15
2018-03-14T15:08:37.313Z,37.35
2018-03-14T15:09:26.359Z,23.73
2018-03-14T15:10:15.411Z,15.85
2018-03-14T15:11:04.462Z,22.25
2018-03-14T15:11:53.530Z,22.08
2018-03-14T15:12:42.710Z,25.48
2018-03-14T15:13:31.774Z,16.52
2018-03-14T15:14:20.836Z,19.90
2018-03-14T15:15:09.905Z,24.73
2018-03-14T15:15:58.953Z,28.55
2018-03-14T15:16:48.020Z,21.77
2018-03-14T15:17:37.207Z,20.37
2018-03-14T15:18:26.267Z,19.20
2018-03-14T15:19:15.321Z,21.25
2018-03-14T15:20:04.409Z,18.58
2018-03-14T15:20:53.482Z,18.27
2018-03-14T15:21:42.565Z,19.02
2018-03-14T15:22:31.607Z,23.62
2018-03-14T15:23:20.694Z,15.38
2018-03-14T15:24:09.753Z,21.65
2018-03-14T15:24:58.830Z,23.60
2018-03-14T15:25:47.888Z,23.25
2018-03-14T15:26:36.949Z,71.90
2018-03-14T15:27:26.007Z,54.55
2018-03-14T15:28:15.048Z,26.10
2018-03-14T15:29:04.206Z,37.25
2018-03-14T15:29:53.308Z,22.65
2018-03-14T15:30:42.395Z,29.80
2018-03-14T15:31:31.476Z,32.63
2018-03-14T15:32:20.807Z,36.10
2018-03-14T15:33:10.238Z,25.33
2018-03-14T15:33:59.305Z,32.72
2018-03-14T15:34:48.364Z,19.62
2018-03-14T15:35:37.426Z,34.67
2018-03-14T15:36:26.539Z,15.90
2018-03-14T15:37:15.600Z,38.40
2018-03-14T15:38:04.693Z,14.95
2018-03-14T15:38:53.813Z,17.48
2018-03-14T15:39:42.897Z,16.70
2018-03-14T15:40:31.958Z,19.60
2018-03-14T15:41:21.013Z,52.85
2018-03-14T15:42:10.101Z,27.85
2018-03-14T15:42:59.159Z,20.75
2018-03-14T15:43:48.216Z,24.30
2018-03-14T15:44:37.395Z,15.85
2018-03-14T15:45:26.646Z,15.30
2018-03-14T15:46:15.710Z,26.52
2018-03-14T15:47:04.788Z,31.52
2018-03-14T15:47:53.846Z,41.90
2018-03-14T15:48:42.952Z,34.63
2018-03-14T15:49:31.995Z,36.42
2018-03-14T15:50:24.322Z,31.58
2018-03-14T15:51:13.384Z,14.65
2018-03-14T15:52:02.437Z,13.95
2018-03-14T15:52:51.499Z,47.88
2018-03-14T15:53:40.636Z,40.33
2018-03-14T15:54:32.160Z,24.65
2018-03-14T15:55:21.245Z,40.05
2018-03-14T15:56:10.345Z,37.20
2018-03-14T15:56:59.428Z,33.97
2018-03-14T15:57:48.483Z,34.53
2018-03-14T15:58:37.545Z,33.38
2018-03-14T15:59:26.597Z,35.20
2018-03-14T16:00:15.659Z,31.10
2018-03-14T16:01:05.295Z,30.73
2018-03-14T16:01:54.424Z,27.77
2018-03-14T16:02:43.485Z,48.17
2018-03-14T16:03:32.538Z,28.08
2018-03-14T16:04:21.591Z,28.90
2018-03-14T16:05:10.704Z,21.08
2018-03-14T16:05:59.753Z,28.58
2018-03-14T16:06:48.830Z,37.40
2018-03-14T16:07:37.892Z,42.97
2018-03-14T16:08:26.964Z,42.17
2018-03-14T16:09:16.013Z,45.25
2018-03-14T16:10:05.169Z,47.00
2018-03-14T16:10:54.219Z,35.58
2018-03-14T16:11:43.270Z,34.03
2018-03-14T16:12:32.341Z,29.23
2018-03-14T16:13:21.389Z,25.92
2018-03-14T16:14:10.457Z,31.62
2018-03-14T16:14:59.540Z,26.67
2018-03-14T16:15:48.692Z,33.90
2018-03-14T16:16:37.759Z,28.87
2018-03-14T16:17:26.939Z,28.92
2018-03-14T16:18:16.029Z,27.20
2018-03-14T16:19:05.078Z,32.20
2018-03-14T16:19:54.130Z,35.35
2018-03-14T16:20:43.196Z,148.15
2018-03-14T16:21:32.261Z,32.85
2018-03-14T16:22:21.306Z,37.47
2018-03-14T16:23:10.381Z,100.65
2018-03-14T16:23:59.493Z,48.80
2018-03-14T16:24:48.572Z,45.78
2018-03-14T16:25:37.625Z,35.90
2018-03-14T16:26:26.676Z,31.33
2018-03-14T16:27:15.736Z,36.78
2018-03-14T16:28:04.838Z,31.30
2018-03-14T16:28:53.892Z,43.05
2018-03-14T16:29:42.937Z,34.78
2018-03-14T16:30:31.984Z,38.20
2018-03-14T16:31:21.035Z,40.53
2018-03-14T16:32:10.096Z,49.08
2018-03-14T16:32:59.134Z,33.08
2018-03-14T16:33:48.277Z,35.58
2018-03-14T16:34:37.330Z,34.30
2018-03-14T16:35:26.385Z,40.00
2018-03-14T16:36:15.450Z,33.40
2018-03-14T16:37:04.515Z,31.17
2018-03-14T16:37:53.560Z,33.20
2018-03-14T16:38:42.614Z,28.80
2018-03-14T16:39:31.700Z,31.75
2018-03-14T16:40:20.760Z,31.58
2018-03-14T16:41:09.808Z,21.85
2018-03-14T16:41:58.883Z,29.10
2018-03-14T16:42:47.921Z,35.55
2018-03-14T16:43:36.980Z,33.20
2018-03-14T16:44:26.050Z,33.15
2018-03-14T16:45:15.272Z,28.42
2018-03-14T16:46:04.336Z,34.42
2018-03-14T16:46:53.389Z,35.72
2018-03-14T16:47:42.434Z,46.70
2018-03-14T16:48:31.485Z,27.25
2018-03-14T16:49:20.533Z,40.97
2018-03-14T16:50:09.601Z,19.35
2018-03-14T16:50:59.130Z,26.70
2018-03-14T16:51:48.169Z,32.63
2018-03-14T16:52:37.213Z,25.30
2018-03-14T16:53:26.246Z,26.20
2018-03-14T16:54:15.313Z,26.35
2018-03-14T16:55:04.376Z,26.37
2018-03-14T16:55:53.431Z,33.92
2018-03-14T16:56:42.728Z,27.20
2018-03-14T16:57:34.428Z,27.25
2018-03-14T16:58:23.469Z,21.52
2018-03-14T16:59:12.554Z,23.33
2018-03-14T17:00:01.638Z,19.75
2018-03-14T17:00:50.718Z,21.08
2018-03-14T17:01:39.788Z,39.03
2018-03-14T17:02:28.832Z,33.42
2018-03-14T17:03:17.889Z,34.95
2018-03-14T17:04:06.972Z,33.10
2018-03-14T17:04:56.016Z,54.88
2018-03-14T17:05:45.096Z,33.78
2018-03-14T17:06:34.157Z,31.95
2018-03-14T17:07:23.213Z,48.75
2018-03-14T17:08:12.302Z,39.05
2018-03-14T17:09:01.352Z,36.65
2018-03-14T17:09:50.421Z,29.67
2018-03-14T17:10:39.476Z,105.50
2018-03-14T17:11:28.579Z,206.98
2018-03-14T17:12:17.957Z,54.58
2018-03-14T17:13:07.052Z,127.97
2018-03-14T17:13:56.157Z,116.28
2018-03-14T17:14:45.205Z,48.65
2018-03-14T17:15:34.287Z,51.97
2018-03-14T17:16:23.356Z,55.47
2018-03-14T17:17:12.573Z,57.67
2018-03-14T17:18:01.637Z,68.18
2018-03-14T17:18:50.704Z,59.67
2018-03-14T17:19:39.777Z,49.10
2018-03-14T17:20:28.833Z,97.37
2018-03-14T17:21:17.890Z,51.92
2018-03-14T17:22:06.973Z,53.08
2018-03-14T17:22:56.116Z,52.20
2018-03-14T17:23:45.202Z,49.10
2018-03-14T17:24:34.257Z,48.63
2018-03-14T17:25:23.319Z,63.05
2018-03-14T17:26:12.449Z,92.20
2018-03-14T17:27:01.498Z,85.82
2018-03-14T17:27:50.577Z,86.22
2018-03-14T17:28:40.134Z,80.05
2018-03-14T17:29:29.217Z,83.85
2018-03-14T17:30:18.286Z,95.65
2018-03-14T17:31:07.371Z,74.82
2018-03-14T17:31:56.510Z,89.47
2018-03-14T17:32:45.559Z,53.35
2018-03-14T17:33:34.632Z,70.72
2018-03-14T17:34:23.684Z,52.90
2018-03-14T17:35:12.734Z,47.10
2018-03-14T17:36:01.807Z,38.30
2018-03-14T17:36:50.853Z,25.30
2018-03-14T17:37:39.905Z,28.33
2018-03-14T17:38:29.023Z,32.33
2018-03-14T17:39:18.176Z,43.78
2018-03-14T17:40:07.233Z,42.80
2018-03-14T17:40:56.326Z,43.25
2018-03-14T17:41:45.380Z,44.72
2018-03-14T17:42:34.463Z,41.78
2018-03-14T17:43:23.587Z,38.05
2018-03-14T17:44:12.636Z,45.78
2018-03-14T17:45:01.698Z,50.20
2018-03-14T17:45:51.005Z,52.10
2018-03-14T17:46:40.039Z,51.13
2018-03-14T17:47:29.084Z,33.33
2018-03-14T17:48:18.142Z,29.10
2018-03-14T17:49:07.201Z,26.00
2018-03-14T17:49:56.266Z,49.38
2018-03-14T17:50:45.307Z,39.28
2018-03-14T17:51:34.488Z,97.40
2018-03-14T17:52:23.570Z,100.40
2018-03-14T17:53:12.631Z,74.43
2018-03-14T17:54:01.682Z,74.43
2018-03-14T17:54:50.742Z,62.35
2018-03-14T17:55:39.802Z,52.72
2018-03-14T17:56:28.886Z,50.50
2018-03-14T17:57:17.980Z,33.75
2018-03-14T17:58:07.033Z,36.72
2018-03-14T17:58:56.086Z,36.53
2018-03-14T17:59:45.138Z,41.70
2018-03-14T18:00:34.199Z,39.58
2018-03-14T18:01:23.263Z,36.10
2018-03-14T18:02:12.314Z,40.95
2018-03-14T18:03:01.732Z,49.88
2018-03-14T18:03:50.784Z,51.35
2018-03-14T18:04:39.827Z,51.00
2018-03-14T18:05:28.969Z,59.38
2018-03-14T18:06:18.052Z,58.60
2018-03-14T18:07:07.131Z,52.05
2018-03-14T18:07:56.190Z,56.30
2018-03-14T18:08:45.331Z,50.53
2018-03-14T18:09:34.400Z,48.25
2018-03-14T18:10:23.466Z,52.33
2018-03-14T18:11:12.574Z,57.03
2018-03-14T18:12:01.636Z,74.25
2018-03-14T18:12:50.683Z,54.22
2018-03-14T18:13:39.741Z,57.35
2018-03-14T18:14:28.818Z,50.00
2018-03-14T18:15:17.865Z,58.47
2018-03-14T18:16:07.069Z,44.38
2018-03-14T18:16:56.146Z,43.83
2018-03-14T18:17:45.207Z,55.20
2018-03-14T18:18:34.283Z,47.55
2018-03-14T18:19:23.343Z,45.28
2018-03-14T18:20:12.392Z,59.63
2018-03-14T18:21:01.437Z,59.10
2018-03-14T18:21:50.757Z,38.15
2018-03-14T18:22:39.797Z,28.38
2018-03-14T18:23:28.891Z,28.52
2018-03-14T18:24:17.948Z,24.52
2018-03-14T18:25:07.001Z,28.23
2018-03-14T18:25:56.131Z,34.20
2018-03-14T18:26:45.180Z,26.83
2018-03-14T18:27:34.282Z,23.90
2018-03-14T18:28:23.368Z,26.12
2018-03-14T18:29:12.437Z,22.95
2018-03-14T18:31:28.140Z,23.98
2018-03-14T18:32:18.958Z,21.75
2018-03-14T18:33:08.125Z,16.40
2018-03-14T18:33:57.298Z,21.27
2018-03-14T18:34:46.443Z,19.95
2018-03-14T18:35:35.493Z,19.05
2018-03-14T18:36:24.897Z,17.77
2018-03-14T18:37:14.076Z,13.50
2018-03-14T18:38:03.233Z,12.50
2018-03-14T18:38:52.312Z,8.60
2018-03-14T18:39:41.732Z,9.77
2018-03-14T18:40:30.778Z,11.80
2018-03-14T18:41:20.046Z,12.30
2018-03-14T18:42:09.260Z,15.93
2018-03-14T18:42:59.414Z,15.23
2018-03-14T18:43:48.461Z,15.13
2018-03-14T18:44:37.532Z,22.27
2018-03-14T18:45:26.585Z,20.70
2018-03-14T18:46:15.639Z,15.07
2018-03-14T18:47:04.731Z,24.70
2018-03-14T18:47:53.802Z,19.30
2018-03-14T18:48:42.903Z,18.83
2018-03-14T18:49:31.965Z,18.75
2018-03-14T18:50:21.029Z,26.02
2018-03-14T18:51:10.073Z,31.23
2018-03-14T18:51:59.119Z,33.70
2018-03-14T18:52:48.158Z,37.35
2018-03-14T18:53:37.214Z,30.98
2018-03-14T18:54:26.323Z,39.33
2018-03-14T18:55:15.786Z,40.40
2018-03-14T18:56:04.895Z,37.75
2018-03-14T18:56:53.949Z,39.42
2018-03-14T18:57:42.996Z,42.80
2018-03-14T18:58:32.320Z,39.17
2018-03-14T18:59:21.582Z,35.05
2018-03-14T19:00:10.654Z,33.22
2018-03-14T19:00:59.815Z,35.28
2018-03-14T19:01:48.874Z,38.45
2018-03-14T19:02:37.943Z,35.08
2018-03-14T19:03:27.004Z,33.95
2018-03-14T19:04:16.075Z,32.35
2018-03-14T19:05:05.220Z,31.87
2018-03-14T19:05:54.417Z,24.83
2018-03-14T19:06:43.492Z,24.45
2018-03-14T19:07:32.569Z,20.70
2018-03-14T19:08:21.671Z,22.23
2018-03-14T19:09:10.762Z,20.55
2018-03-14T19:09:59.853Z,19.52
2018-03-14T19:10:48.960Z,30.30
2018-03-14T19:11:38.014Z,27.15
2018-03-14T19:12:27.088Z,66.50
2018-03-14T19:13:16.138Z,31.35
2018-03-14T19:14:05.204Z,42.40
2018-03-14T19:14:54.263Z,44.95
2018-03-14T19:15:43.798Z,46.25
2018-03-14T19:16:32.859Z,52.62
2018-03-14T19:17:21.904Z,59.90
2018-03-14T19:18:10.948Z,69.00
2018-03-14T19:19:00.019Z,74.00
2018-03-14T19:19:49.093Z,85.53
2018-03-14T19:20:38.210Z,104.97
2018-03-14T19:21:27.280Z,96.90
2018-03-14T19:22:16.349Z,98.75